Time;durP1;ratioP1;P1;durP2;ratioP2;P2;SDS_P1;SDS_P2;PMS_P1;PMS_P2;Temp;Humidity;BMP_temperature;BMP_pressure;BME280_temperature;BME280_humidity;BME280_pressure;Samples;Min_cycle;Max_cycle;Signal;HPM_P1;HPM_P2
2022/01/27 00:04:14;;;;;;;20.65;6.65;;;;;;;-10.07;65.11;99942.66;4962120;28;20046;-82
2022/01/27 00:06:41;;;;;;;10.52;6.15;;;;;;;-10.11;65.12;99924.50;4976737;28;20050;-85
2022/01/27 00:09:16;;;;;;;15.45;7.07;;;;;;;-9.91;64.98;99953.19;4977881;28;20125;-87
2022/01/27 00:11:45;;;;;;;14.05;5.25;;;;;;;-10.06;64.59;99948.69;4962196;28;20054;-88
2022/01/27 00:14:13;;;;;;;15.20;6.43;;;;;;;-9.85;64.27;99961.88;4987004;28;20053;-89
2022/01/27 00:16:43;;;;;;;16.88;6.20;;;;;;;-9.98;64.44;99946.19;4968488;28;20100;-82
2022/01/27 00:19:10;;;;;;;18.42;7.50;;;;;;;-9.84;64.77;99960.16;4977882;28;20189;-81
2022/01/27 00:21:37;;;;;;;23.17;6.97;;;;;;;-9.81;64.37;99944.69;4943616;28;20067;-82
2022/01/27 00:24:03;;;;;;;23.02;7.15;;;;;;;-9.81;63.99;99942.09;4975084;28;20040;-82
2022/01/27 00:26:29;;;;;;;18.73;7.10;;;;;;;-9.71;64.08;99950.81;4975031;28;20039;-81
2022/01/27 00:28:55;;;;;;;18.70;7.53;;;;;;;-9.65;64.45;99945.72;4976105;28;20060;-82
2022/01/27 00:31:22;;;;;;;26.10;8.30;;;;;;;-9.52;64.11;99951.88;4975106;28;20109;-83
2022/01/27 00:33:48;;;;;;;32.45;8.88;;;;;;;-9.48;63.95;99951.06;4958833;28;20043;-82
2022/01/27 00:36:14;;;;;;;27.98;8.75;;;;;;;-9.47;64.13;99955.41;4991147;28;20046;-83
2022/01/27 00:38:40;;;;;;;23.40;8.38;;;;;;;-9.45;63.89;99953.69;4975594;28;20047;-82
2022/01/27 00:41:07;;;;;;;25.35;9.43;;;;;;;-9.45;63.69;99954.53;4977120;28;20129;-82
2022/01/27 00:43:33;;;;;;;23.95;10.07;;;;;;;-9.49;63.95;99947.59;4959222;28;20046;-86
2022/01/27 00:45:59;;;;;;;32.33;11.05;;;;;;;-9.48;64.12;99967.44;4976817;28;20058;-86
2022/01/27 00:48:25;;;;;;;22.58;9.15;;;;;;;-9.48;64.06;99970.03;4968387;28;20081;-87
2022/01/27 00:50:57;;;;;;;20.40;8.93;;;;;;;-9.61;63.95;99961.28;4960505;28;20047;-85
2022/01/27 00:53:33;;;;;;;9.48;4.85;;;;;;;-9.62;63.83;99962.16;4995327;28;20069;-84
2022/01/27 00:56:11;;;;;;;15.18;7.05;;;;;;;-9.62;63.89;99962.16;4967315;28;20106;-81
2022/01/27 01:01:16;;;;;;;13.68;5.22;;;;;;;-9.73;63.90;99968.91;4975138;28;20039;-80
2022/01/27 01:03:45;;;;;;;18.55;7.00;;;;;;;-9.69;63.88;99969.81;4975229;28;20073;-80
2022/01/27 01:06:33;;;;;;;11.10;5.05;;;;;;;-9.60;63.70;99965.59;4975838;28;20046;-80
2022/01/27 01:17:03;;;;;;;13.77;6.05;;;;;;;-9.69;63.95;99975.00;4974428;28;20129;-81
2022/01/27 01:19:57;;;;;;;16.77;7.53;;;;;;;-9.69;64.19;99975.84;4973847;28;20133;-80
2022/01/27 01:33:10;;;;;;;;;;;;;;;-9.49;65.01;99985.56;4976497;28;20054;-79
2022/01/27 01:35:48;;;;;;;14.15;6.32;;;;;;;-9.48;64.92;99969.16;4986599;28;19918;-80
2022/01/27 01:38:19;;;;;;;15.90;6.68;;;;;;;-9.65;65.22;99977.63;4995016;28;20042;-80
2022/01/27 01:40:51;;;;;;;12.02;6.75;;;;;;;-9.62;65.90;99971.63;4983152;28;20070;-80
2022/01/27 01:43:18;;;;;;;15.80;6.75;;;;;;;-9.49;65.51;99980.38;4976572;28;20050;-79
2022/01/27 01:45:44;;;;;;;16.27;6.68;;;;;;;-9.59;66.17;99984.56;4975116;28;20133;-80
2022/01/27 01:48:10;;;;;;;18.23;7.45;;;;;;;-9.48;66.23;99989.88;4974813;28;20050;-81
2022/01/27 01:50:37;;;;;;;22.45;7.82;;;;;;;-9.41;66.04;99981.31;4974438;28;20045;-80
2022/01/27 01:53:03;;;;;;;18.00;7.85;;;;;;;-9.24;66.08;99987.56;4974658;28;20418;-80
2022/01/27 01:55:30;;;;;;;21.77;7.53;;;;;;;-9.23;65.63;99980.66;4974711;28;20050;-80
2022/01/27 01:57:57;;;;;;;19.40;6.07;;;;;;;-9.18;65.32;99972.06;4943208;28;20047;-80
2022/01/27 02:00:24;;;;;;;17.75;6.88;;;;;;;-9.12;65.23;99985.06;4961910;28;20043;-80
2022/01/27 02:02:51;;;;;;;19.13;7.15;;;;;;;-9.14;65.61;99976.44;4980369;28;20043;-80
2022/01/27 02:05:19;;;;;;;16.60;7.70;;;;;;;-9.08;65.59;99989.44;4964833;28;20049;-78
2022/01/27 02:08:12;;;;;;;17.55;7.40;;;;;;;-9.13;65.44;99998.88;4964454;28;20069;-80
2022/01/27 02:19:22;;;;;;;12.48;5.63;;;;;;;-9.09;65.07;99994.59;4944393;28;20062;-80
2022/01/27 02:22:10;;;;;;;20.13;6.82;;;;;;;-9.14;65.73;100001.44;4958105;28;20403;-81
2022/01/27 02:24:36;;;;;;;16.63;6.28;;;;;;;-9.09;65.83;99990.28;4974274;28;20112;-79
2022/01/27 02:27:04;;;;;;;17.42;6.18;;;;;;;-9.03;65.52;99993.78;4957891;28;20469;-80
2022/01/27 02:29:30;;;;;;;24.08;7.18;;;;;;;-9.07;65.86;99980.78;4974962;28;20060;-81
2022/01/27 02:31:58;;;;;;;16.67;6.00;;;;;;;-9.06;65.53;99968.75;4973431;28;20042;-81
2022/01/27 02:34:24;;;;;;;13.43;7.25;;;;;;;-8.93;65.71;99980.06;4973373;28;20498;-80
2022/01/27 02:36:50;;;;;;;23.60;7.97;;;;;;;-8.91;65.35;99978.34;4941286;28;20066;-80
2022/01/27 02:39:17;;;;;;;21.25;6.60;;;;;;;-8.84;65.28;99991.38;4925628;28;20132;-81
2022/01/27 02:41:48;;;;;;;12.70;5.97;;;;;;;-8.84;65.41;99995.66;4957597;28;20041;-79
2022/01/27 02:44:32;;;;;;;14.90;6.25;;;;;;;-8.84;65.78;99990.50;4957617;28;20046;-79
2022/01/27 02:46:59;;;;;;;17.20;6.60;;;;;;;-8.82;65.50;99983.63;4956874;28;20042;-81
2022/01/27 02:49:25;;;;;;;13.10;6.05;;;;;;;-8.76;65.99;99982.78;4957009;28;20046;-79
2022/01/27 02:51:51;;;;;;;18.27;6.63;;;;;;;-8.70;65.75;99975.94;4941215;28;20053;-79
2022/01/27 02:54:18;;;;;;;14.48;5.65;;;;;;;-8.70;65.59;99973.34;4973238;28;20458;-79
2022/01/27 02:56:46;;;;;;;15.90;7.55;;;;;;;-8.74;65.66;99988.84;4957120;28;20046;-80
2022/01/27 02:59:15;;;;;;;22.60;7.47;;;;;;;-8.72;65.66;99975.06;4973697;28;20565;-80
2022/01/27 03:01:46;;;;;;;15.98;5.93;;;;;;;-8.66;65.46;99984.59;4940994;28;20047;-79
2022/01/27 03:04:12;;;;;;;13.75;5.15;;;;;;;-8.76;65.49;99988.84;4973072;28;20082;-79
2022/01/27 03:06:38;;;;;;;18.30;6.88;;;;;;;-8.72;65.60;99988.03;4974794;28;20042;-79
2022/01/27 03:09:05;;;;;;;16.13;7.43;;;;;;;-8.64;65.52;99993.25;4972750;28;20445;-80
2022/01/27 03:11:51;;;;;;;15.43;6.40;;;;;;;-8.73;65.44;99995.78;4940822;28;20057;-81
2022/01/27 03:14:22;;;;;;;22.02;7.35;;;;;;;-8.72;65.45;100000.97;4957337;28;20052;-80
2022/01/27 03:16:49;;;;;;;21.73;6.90;;;;;;;-8.65;65.79;100007.06;4973035;28;20053;-80
2022/01/27 03:19:15;;;;;;;18.95;6.85;;;;;;;-8.58;65.58;100009.72;4972804;28;20074;-80
2022/01/27 03:21:41;;;;;;;21.38;7.68;;;;;;;-8.47;65.37;100012.38;4956648;28;20089;-79
2022/01/27 03:24:07;;;;;;;15.63;7.00;;;;;;;-8.48;65.22;100018.44;4956473;28;20502;-79
2022/01/27 03:26:34;;;;;;;19.90;7.18;;;;;;;-8.54;65.22;100020.09;4956292;28;20047;-81
2022/01/27 03:29:00;;;;;;;17.27;6.75;;;;;;;-8.42;65.21;100023.69;4956692;28;20074;-78
2022/01/27 03:31:26;;;;;;;20.60;7.38;;;;;;;-8.31;64.66;100023.72;4972528;28;20137;-77
2022/01/27 03:33:53;;;;;;;22.63;8.30;;;;;;;-8.38;65.00;100020.25;4956882;28;20059;-79
2022/01/27 03:36:19;;;;;;;20.60;7.65;;;;;;;-8.36;64.94;100020.22;4973146;28;20045;-79
2022/01/27 03:38:46;;;;;;;18.27;6.28;;;;;;;-8.30;64.94;100030.63;4956916;28;20125;-80
2022/01/27 03:41:17;;;;;;;16.02;7.53;;;;;;;-8.33;64.88;100030.63;4956537;28;20043;-79
2022/01/27 03:43:43;;;;;;;19.92;7.82;;;;;;;-8.38;64.80;100012.47;4926845;28;20054;-80
2022/01/27 03:46:09;;;;;;;27.10;8.02;;;;;;;-8.29;64.69;100022.00;4956431;28;20047;-79
2022/01/27 03:48:35;;;;;;;16.00;7.05;;;;;;;-8.26;64.82;100024.63;4972733;28;20049;-80
2022/01/27 03:51:02;;;;;;;19.33;7.30;;;;;;;-8.32;64.68;100024.56;4972561;28;20110;-80
2022/01/27 03:53:28;;;;;;;27.70;7.90;;;;;;;-8.28;64.65;100033.22;4956671;28;20038;-79
2022/01/27 03:55:54;;;;;;;21.52;7.25;;;;;;;-8.36;64.82;100025.41;4956330;28;20050;-79
2022/01/27 03:58:20;;;;;;;22.88;7.00;;;;;;;-8.35;65.03;100022.84;4940594;28;20740;-79
2022/01/27 04:00:46;;;;;;;27.23;7.50;;;;;;;-8.37;65.26;100028.88;4972603;28;20046;-79
2022/01/27 04:03:15;;;;;;;26.80;7.47;;;;;;;-8.52;65.20;100024.47;4956403;28;20606;-78
2022/01/27 04:05:48;;;;;;;15.60;6.28;;;;;;;-8.46;65.43;100037.47;4910033;28;20058;-78
2022/01/27 04:08:14;;;;;;;16.73;7.20;;;;;;;-8.40;65.22;100039.22;4972499;28;20070;-81
2022/01/27 04:10:40;;;;;;;18.10;7.05;;;;;;;-8.32;65.08;100042.72;4957067;28;20054;-80
2022/01/27 04:13:07;;;;;;;22.58;6.82;;;;;;;-8.38;65.11;100038.41;4940689;28;20046;-80
2022/01/27 04:15:34;;;;;;;22.10;7.05;;;;;;;-8.42;65.23;100040.97;4972739;28;20520;-80
2022/01/27 04:18:01;;;;;;;22.70;7.82;;;;;;;-8.36;65.11;100034.03;4972072;28;20133;-81
2022/01/27 04:20:27;;;;;;;18.08;7.50;;;;;;;-8.24;65.27;100034.97;4955987;28;20098;-79
2022/01/27 04:22:53;;;;;;;20.88;7.43;;;;;;;-8.25;65.05;100039.31;4975003;28;20504;-80
2022/01/27 04:25:19;;;;;;;27.13;7.93;;;;;;;-8.23;65.26;100047.97;4986425;28;20124;-77
2022/01/27 04:27:53;;;;;;;27.92;8.05;;;;;;;-8.15;64.90;100056.69;4985132;28;20068;-79
2022/01/27 04:30:22;;;;;;;35.13;8.00;;;;;;;-8.23;64.57;100057.50;4970030;28;20046;-78
2022/01/27 04:32:58;;;;;;;19.80;7.60;;;;;;;-8.31;64.92;100054.84;4985581;28;20038;-80
2022/01/27 04:35:27;;;;;;;13.63;4.43;;;;;;;-8.36;65.11;100049.59;4971188;28;20146;-80
2022/01/27 04:40:48;;;;;;;37.15;8.88;;;;;;;-8.35;65.03;100047.88;4955970;28;20042;-81
2022/01/27 04:45:53;;;;;;;23.13;7.93;;;;;;;-8.13;64.36;100056.69;4975901;28;20046;-79
2022/01/27 04:48:21;;;;;;;16.25;7.47;;;;;;;-8.21;64.26;100048.84;4995180;28;20414;-80
2022/01/27 04:50:49;;;;;;;19.35;6.95;;;;;;;-8.20;64.46;100060.09;4979008;28;20089;-80
2022/01/27 04:53:23;;;;;;;23.67;7.10;;;;;;;-8.22;64.19;100034.16;4979360;28;20077;-79
2022/01/27 04:55:49;;;;;;;14.55;6.00;;;;;;;-8.15;64.11;100055.81;4979843;28;20053;-78
2022/01/27 04:58:16;;;;;;;13.30;5.65;;;;;;;-8.09;64.10;100050.66;4997134;28;20518;-84
2022/01/27 05:00:43;;;;;;;13.90;6.57;;;;;;;-8.07;64.13;100057.59;4949416;28;20046;-85
2022/01/27 05:03:32;;;;;;;28.65;7.78;;;;;;;-7.98;64.59;100056.78;4979992;28;20524;-78
2022/01/27 05:05:58;;;;;;;;;;;;;;;-8.02;64.01;100060.22;4997184;28;20073;-81
2022/01/27 05:08:24;;;;;;;16.50;5.88;;;;;;;-8.01;64.19;100058.47;4946754;28;20373;-80
2022/01/27 05:11:01;;;;;;;18.27;6.60;;;;;;;-7.89;63.74;100069.81;4994771;28;20112;-79
2022/01/27 05:13:29;;;;;;;19.80;7.57;;;;;;;-7.67;65.48;100065.63;4963212;28;20042;-79
2022/01/27 05:15:56;;;;;;;19.73;7.70;;;;;;;-7.55;63.57;100057.03;4979607;28;20042;-79
2022/01/27 05:18:22;;;;;;;18.58;6.90;;;;;;;-7.37;63.38;100064.88;5003670;28;20058;-80
2022/01/27 05:20:48;;;;;;;15.80;6.53;;;;;;;-7.31;62.63;100070.97;4986890;28;20046;-81
2022/01/27 05:23:14;;;;;;;20.25;7.93;;;;;;;-7.28;62.55;100068.38;4961916;28;20050;-82
2022/01/27 05:25:40;;;;;;;16.05;7.20;;;;;;;-7.39;62.15;100070.94;4926236;28;20047;-82
2022/01/27 05:28:07;;;;;;;21.50;8.20;;;;;;;-7.38;62.20;100072.66;4973703;28;20039;-82
2022/01/27 05:30:34;;;;;;;19.40;7.38;;;;;;;-7.37;62.38;100075.28;4974971;28;20046;-78
2022/01/27 05:33:02;;;;;;;10.07;4.70;;;;;;;-7.23;62.36;100072.72;4925793;28;20457;-86
2022/01/27 05:35:28;;;;;;;21.80;8.70;;;;;;;-7.17;62.31;100071.88;4974256;28;20502;-77
2022/01/27 05:37:54;;;;;;;21.52;8.90;;;;;;;-7.13;61.81;100077.09;4975570;28;20043;-85
2022/01/27 05:40:20;;;;;;;18.67;8.23;;;;;;;-7.25;61.98;100074.44;4942106;28;20043;-80
2022/01/27 05:42:46;;;;;;;21.20;7.65;;;;;;;-7.05;62.20;100086.63;4941992;28;20058;-79
2022/01/27 05:45:12;;;;;;;23.13;7.53;;;;;;;-6.37;68.48;100078.94;4959623;28;20039;-87
2022/01/27 05:47:38;;;;;;;20.35;7.90;;;;;;;-6.26;63.51;100083.28;4974545;28;20038;-79
2022/01/27 05:50:05;;;;;;;23.00;8.30;;;;;;;-6.25;61.51;100088.47;4975088;28;20061;-82
2022/01/27 05:52:31;;;;;;;18.33;8.25;;;;;;;-6.25;60.82;100079.81;4926396;28;20043;-79
2022/01/27 05:54:57;;;;;;;18.75;6.43;;;;;;;-6.28;60.26;100082.41;4973846;28;20082;-79
2022/01/27 05:57:24;;;;;;;24.80;7.40;;;;;;;-6.30;60.26;100092.81;4973818;28;20062;-85
2022/01/27 05:59:50;;;;;;;26.17;8.95;;;;;;;-6.20;60.04;100102.38;4973900;28;20510;-81
2022/01/27 06:02:16;;;;;;;22.45;8.23;;;;;;;-6.27;59.71;100090.22;4957806;28;20051;-79
2022/01/27 06:04:42;;;;;;;21.75;7.97;;;;;;;-6.18;60.85;100090.22;4941883;28;20070;-81
2022/01/27 06:07:08;;;;;;;25.75;7.82;;;;;;;-6.17;59.20;100086.75;4942292;28;20682;-80
2022/01/27 06:09:34;;;;;;;17.55;7.95;;;;;;;-6.16;61.02;100082.41;4942276;28;20070;-79
2022/01/27 06:12:00;;;;;;;21.33;8.77;;;;;;;-5.96;60.33;100085.00;4974629;28;20129;-80
2022/01/27 06:14:26;;;;;;;23.52;8.05;;;;;;;-5.81;59.91;100077.13;4963076;28;20194;-80
2022/01/27 06:16:52;;;;;;;20.35;7.55;;;;;;;-5.68;58.73;100081.44;4992993;28;20038;-79
2022/01/27 06:19:18;;;;;;;31.00;7.97;;;;;;;-5.65;58.52;100076.19;4993431;28;20097;-80
2022/01/27 06:21:45;;;;;;;32.80;7.95;;;;;;;-5.93;58.62;100067.63;4977369;28;20061;-84
2022/01/27 06:24:11;;;;;;;19.35;8.35;;;;;;;-5.83;58.83;100071.03;4960778;28;20054;-79
2022/01/27 06:26:37;;;;;;;23.27;7.97;;;;;;;-5.89;59.46;100073.66;4992314;28;20520;-78
2022/01/27 06:29:05;;;;;;;20.73;8.75;;;;;;;-5.77;59.15;100075.38;4976781;28;20046;-84
2022/01/27 06:31:31;;;;;;;22.10;8.05;;;;;;;-5.84;58.37;100082.31;4960750;28;20050;-80
2022/01/27 06:33:57;;;;;;;18.20;8.30;;;;;;;-5.88;58.58;100076.25;4993294;28;20132;-80
2022/01/27 06:36:23;;;;;;;40.22;9.73;;;;;;;-5.93;58.40;100090.19;4990447;28;20494;-76
2022/01/27 06:38:49;;;;;;;22.17;7.75;;;;;;;-6.17;58.63;100080.66;4960213;28;20097;-77
2022/01/27 06:41:15;;;;;;;23.70;8.25;;;;;;;-6.20;58.75;100081.56;4956618;28;20050;-81
2022/01/27 06:43:41;;;;;;;22.85;8.60;;;;;;;-6.20;58.76;100094.56;4941203;28;20053;-79
2022/01/27 06:46:07;;;;;;;16.58;7.60;;;;;;;-6.14;58.98;100091.94;4940662;28;20191;-78
2022/01/27 06:48:33;;;;;;;16.13;6.53;;;;;;;-6.30;58.79;100079.81;4940890;28;20091;-80
2022/01/27 06:51:01;;;;;;;29.52;8.65;;;;;;;-6.50;58.85;100091.97;4956764;28;20055;-82
2022/01/27 06:53:28;;;;;;;18.48;7.47;;;;;;;-6.71;59.88;100092.78;4928107;28;20585;-77
2022/01/27 06:55:54;;;;;;;22.58;7.55;;;;;;;-6.54;60.54;100095.38;4988325;28;20043;-84
2022/01/27 06:58:20;;;;;;;18.15;8.25;;;;;;;-6.49;59.78;100104.09;4972234;28;20526;-89
2022/01/27 07:00:47;;;;;;;20.42;7.82;;;;;;;-6.48;59.52;100105.81;4939713;28;20047;-82
2022/01/27 07:03:13;;;;;;;25.27;8.07;;;;;;;-6.56;59.51;100107.53;4957278;28;20042;-81
2022/01/27 07:05:41;;;;;;;26.42;8.80;;;;;;;-6.54;59.47;100104.09;4957751;28;20398;-84
2022/01/27 07:08:07;;;;;;;23.90;8.45;;;;;;;-6.42;59.27;100121.44;4926247;28;20153;-83
2022/01/27 07:10:33;;;;;;;27.52;8.13;;;;;;;-6.37;59.06;100109.28;4941338;28;20050;-82
2022/01/27 07:13:01;;;;;;;22.45;7.43;;;;;;;-6.36;58.65;100100.59;4926946;28;20138;-85
2022/01/27 07:15:28;;;;;;;32.95;8.10;;;;;;;-6.32;58.42;100111.88;4909479;28;20085;-80
2022/01/27 07:17:54;;;;;;;18.88;7.72;;;;;;;-6.31;58.20;100103.22;4955304;28;20062;-85
2022/01/27 07:20:20;;;;;;;15.88;7.30;;;;;;;-6.09;58.50;100110.19;4940293;28;20148;-82
2022/01/27 07:22:46;;;;;;;16.55;6.97;;;;;;;-6.18;57.86;100111.03;4973001;28;20063;-83
2022/01/27 07:25:12;;;;;;;18.35;7.63;;;;;;;-6.13;57.54;100104.09;4957026;28;20046;-82
2022/01/27 07:27:38;;;;;;;17.80;7.22;;;;;;;-6.03;57.29;100104.94;4957662;28;20101;-82
2022/01/27 07:30:05;;;;;;;18.02;7.57;;;;;;;-5.95;57.00;100107.53;4956756;28;20093;-84
2022/01/27 07:32:34;;;;;;;21.15;6.88;;;;;;;-6.02;56.86;100111.88;4972994;28;20042;-84
2022/01/27 07:35:01;;;;;;;18.23;7.45;;;;;;;-6.08;57.13;100111.03;4942036;28;20134;-81
2022/01/27 07:37:29;;;;;;;23.42;7.60;;;;;;;-5.97;56.96;100117.09;4942619;28;20046;-83
2022/01/27 07:39:55;;;;;;;21.88;7.07;;;;;;;-5.80;57.15;100107.47;4959537;28;20047;-83
2022/01/27 07:42:21;;;;;;;17.05;7.13;;;;;;;-5.74;56.10;100112.69;4973114;28;20082;-84
2022/01/27 07:44:47;;;;;;;23.50;7.85;;;;;;;-5.84;56.14;100110.97;4957190;28;20102;-83
2022/01/27 07:47:14;;;;;;;22.20;7.75;;;;;;;-5.67;56.66;100104.00;4940930;28;20049;-83
2022/01/27 07:49:40;;;;;;;23.83;8.50;;;;;;;-5.75;56.12;100095.34;4940981;28;20096;-84
2022/01/27 07:52:06;;;;;;;23.58;6.88;;;;;;;-5.42;56.28;100104.78;4924395;28;20485;-81
2022/01/27 07:54:32;;;;;;;23.52;7.53;;;;;;;-5.37;55.76;100104.78;4940825;28;20054;-83
2022/01/27 07:56:58;;;;;;;27.67;9.18;;;;;;;-5.30;55.71;100088.28;4958292;28;20050;-84
2022/01/27 07:59:24;;;;;;;16.23;7.20;;;;;;;-5.14;55.11;100089.94;4928386;28;20437;-81
2022/01/27 08:01:50;;;;;;;21.63;6.85;;;;;;;-5.30;54.67;100101.31;4962586;28;20125;-83
2022/01/27 08:04:16;;;;;;;20.30;8.27;;;;;;;-5.23;55.26;100095.19;4950383;28;20078;-82
2022/01/27 08:06:42;;;;;;;17.30;7.68;;;;;;;-5.10;54.40;100105.56;4968870;28;20122;-82
2022/01/27 08:09:08;;;;;;;21.40;8.48;;;;;;;-4.80;54.24;100105.41;4957116;28;20133;-81
2022/01/27 08:11:34;;;;;;;24.00;7.60;;;;;;;-4.90;53.73;100109.78;4944994;28;20046;-79
2022/01/27 08:14:00;;;;;;;18.58;7.07;;;;;;;-4.85;53.12;100096.75;4981960;28;20042;-84
2022/01/27 08:16:26;;;;;;;26.00;8.38;;;;;;;-4.94;53.51;100108.06;5000698;28;20486;-83
2022/01/27 08:18:52;;;;;;;18.55;7.22;;;;;;;-4.84;53.72;100110.66;4978297;28;20494;-79
2022/01/27 08:21:18;;;;;;;22.88;7.82;;;;;;;-4.80;53.01;100104.53;4985465;28;20064;-83
2022/01/27 08:23:45;;;;;;;21.77;8.18;;;;;;;-4.72;52.86;100102.75;4972719;28;20404;-81
2022/01/27 08:26:14;;;;;;;19.10;7.78;;;;;;;-4.95;52.28;100090.72;4945108;28;20262;-83
2022/01/27 08:28:46;;;;;;;17.42;6.82;;;;;;;-5.08;53.07;100114.22;4962005;28;20498;-84
2022/01/27 08:31:14;;;;;;;16.60;6.47;;;;;;;-5.00;53.17;100099.41;4944956;28;20047;-84
2022/01/27 08:33:41;;;;;;;17.00;8.00;;;;;;;-5.13;52.90;100096.88;4957447;28;20051;-83
2022/01/27 08:36:07;;;;;;;25.23;8.48;;;;;;;-5.13;53.49;100091.66;4950067;28;20549;-80
2022/01/27 08:38:33;;;;;;;17.58;6.93;;;;;;;-5.31;53.38;100091.72;4941477;29;20054;-82
2022/01/27 08:40:59;;;;;;;15.70;6.75;;;;;;;-5.28;53.85;100090.84;4928469;28;20451;-83
2022/01/27 08:43:25;;;;;;;24.15;7.85;;;;;;;-5.22;53.57;100096.91;4954959;28;20058;-83
2022/01/27 08:45:53;;;;;;;15.63;7.05;;;;;;;-5.08;53.13;100083.81;4973137;28;20057;-85
2022/01/27 08:48:21;;;;;;;19.17;7.65;;;;;;;-4.86;52.81;100089.78;4947512;28;20053;-85
2022/01/27 08:50:57;;;;;;;16.67;6.55;;;;;;;-4.86;53.07;100094.13;4977577;28;20418;-83
2022/01/27 08:53:23;;;;;;;12.88;6.25;;;;;;;-4.65;52.36;100089.66;4961689;28;20046;-83
2022/01/27 08:55:49;;;;;;;18.17;7.07;;;;;;;-4.54;52.46;100086.13;4976016;28;20043;-84
2022/01/27 08:58:15;;;;;;;21.20;8.40;;;;;;;-4.19;52.25;100096.28;4954086;28;20098;-83
2022/01/27 09:00:41;;;;;;;19.48;7.95;;;;;;;-3.99;51.62;100090.88;4994371;28;20046;-84
2022/01/27 09:03:08;;;;;;;21.95;8.57;;;;;;;-3.98;51.42;100092.63;4967203;28;20047;-82
2022/01/27 09:05:35;;;;;;;24.58;9.18;;;;;;;-3.94;51.25;100095.19;4976794;28;20098;-82
2022/01/27 09:08:01;;;;;;;24.80;7.88;;;;;;;-4.07;51.02;100098.78;4928148;28;20046;-85
2022/01/27 09:10:31;;;;;;;24.25;9.18;;;;;;;-3.83;50.69;100091.63;4928160;28;20083;-83
2022/01/27 09:13:01;;;;;;;27.45;8.77;;;;;;;-3.78;50.56;100101.13;4929846;28;20043;-83
2022/01/27 09:15:27;;;;;;;20.65;7.32;;;;;;;-3.64;50.14;100100.16;4961501;28;20046;-83
2022/01/27 09:17:56;;;;;;;22.85;8.02;;;;;;;-3.55;50.30;100094.81;4912448;28;20066;-82
2022/01/27 09:20:22;;;;;;;16.55;7.40;;;;;;;-3.71;50.27;100102.81;4975777;28;20376;-80
2022/01/27 09:22:51;;;;;;;29.33;8.27;;;;;;;-3.78;50.98;100090.69;4980753;28;20071;-81
2022/01/27 09:25:21;;;;;;;21.92;7.60;;;;;;;-3.64;50.04;100092.31;4969506;28;20138;-81
2022/01/27 09:27:48;;;;;;;16.42;6.55;;;;;;;-3.58;49.70;100093.09;4986022;28;20043;-83
2022/01/27 09:30:17;;;;;;;25.25;8.38;;;;;;;-3.63;50.21;100100.13;5001113;28;20046;-80
2022/01/27 09:32:43;;;;;;;23.65;9.50;;;;;;;-3.63;50.49;100089.66;4993680;28;20606;-83
2022/01/27 09:35:09;;;;;;;24.27;8.30;;;;;;;-3.49;50.02;100086.91;4975835;28;20050;-83
2022/01/27 09:37:35;;;;;;;21.58;7.30;;;;;;;-3.30;49.66;100090.19;4958598;28;20070;-84
2022/01/27 09:40:02;;;;;;;21.90;8.82;;;;;;;-3.41;49.52;100082.47;4975154;28;20042;-85
2022/01/27 09:42:32;;;;;;;17.90;7.88;;;;;;;-3.33;49.56;100088.47;4942748;28;20075;-82
2022/01/27 09:44:58;;;;;;;;;;;;;;;-3.31;49.65;100085.81;4959476;28;20531;-80
2022/01/27 09:47:29;;;;;;;19.77;8.63;;;;;;;-3.06;49.90;100081.16;4942609;28;19924;-81
2022/01/27 09:50:05;;;;;;;20.23;8.02;;;;;;;-3.33;49.06;100082.38;4959986;28;20042;-82
2022/01/27 09:52:31;;;;;;;21.10;7.95;;;;;;;-3.24;49.18;100077.88;4928055;28;20047;-83
2022/01/27 09:54:58;;;;;;;21.17;8.10;;;;;;;-3.31;48.61;100086.72;4974334;28;20043;-81
2022/01/27 09:57:24;;;;;;;22.40;8.35;;;;;;;-3.09;49.40;100084.66;4955403;29;20035;-82
2022/01/27 09:59:50;;;;;;;21.60;9.00;;;;;;;-2.90;48.62;100087.91;4955040;29;20054;-82
2022/01/27 10:02:18;;;;;;;18.70;7.53;;;;;;;-3.04;48.63;100080.28;4939206;29;20047;-80
2022/01/27 10:04:48;;;;;;;17.17;8.05;;;;;;;-3.18;48.02;100077.81;4940676;28;20133;-82
2022/01/27 10:07:19;;;;;;;19.70;8.10;;;;;;;-3.13;48.68;100084.75;4974261;28;20522;-81
2022/01/27 10:10:16;;;;;;;18.30;8.38;;;;;;;-2.99;48.57;100077.59;4958731;28;20042;-83
2022/01/27 10:12:47;;;;;;;17.85;7.97;;;;;;;-3.07;47.93;100079.44;4932130;29;20079;-85
2022/01/27 10:15:17;;;;;;;26.30;7.60;;;;;;;-3.07;47.83;100076.81;4955670;28;20051;-82
2022/01/27 10:18:14;;;;;;;21.33;7.65;;;;;;;-2.99;56.10;100082.81;4969134;28;20505;-83
2022/01/27 10:20:45;;;;;;;17.13;7.38;;;;;;;-3.54;48.97;100083.47;4990172;28;20133;-83
2022/01/27 10:23:33;;;;;;;30.00;8.82;;;;;;;-3.66;49.53;100080.09;4941492;28;20059;-80
2022/01/27 10:26:09;;;;;;;32.17;8.43;;;;;;;-3.71;49.70;100074.06;4974254;28;20042;-81
2022/01/27 10:28:44;;;;;;;22.17;8.65;;;;;;;-3.75;49.74;100077.59;4943779;28;20046;-80
2022/01/27 10:31:19;;;;;;;20.60;8.35;;;;;;;-2.64;66.41;100089.31;4974109;28;20129;-84
2022/01/27 10:33:55;;;;;;;28.33;8.45;;;;;;;-2.29;53.51;100081.81;4959052;28;20082;-82
2022/01/27 10:36:32;;;;;;;27.58;8.60;;;;;;;-2.52;48.77;100069.06;4964754;28;20580;-76
2022/01/27 10:39:02;;;;;;;22.00;9.45;;;;;;;-2.81;48.33;100071.25;4965261;28;20531;-82
2022/01/27 10:41:32;;;;;;;23.48;8.63;;;;;;;-2.93;48.17;100067.06;4966032;28;20050;-78
2022/01/27 10:44:15;;;;;;;30.92;8.80;;;;;;;-3.04;48.03;100072.41;4951464;28;20526;-83
2022/01/27 10:47:05;;;;;;;31.73;9.45;;;;;;;-3.22;48.50;100076.13;4931324;28;20050;-80
2022/01/27 10:49:33;;;;;;;23.98;8.30;;;;;;;-3.17;48.88;100076.94;4983372;28;20053;-80
2022/01/27 10:51:59;;;;;;;21.30;8.68;;;;;;;-3.17;48.12;100084.78;4967265;28;20562;-81
2022/01/27 10:54:38;;;;;;;28.52;8.57;;;;;;;-3.38;48.03;100089.41;4982405;28;20042;-82
2022/01/27 10:57:12;;;;;;;26.58;9.02;;;;;;;-3.43;48.62;100081.59;4966226;28;20046;-85
2022/01/27 10:59:38;;;;;;;21.98;8.57;;;;;;;-3.38;48.09;100079.81;4979955;28;20549;-82
2022/01/27 11:02:09;;;;;;;23.08;8.95;;;;;;;-3.53;48.48;100085.22;4975488;28;20039;-84
2022/01/27 11:04:40;;;;;;;26.38;8.70;;;;;;;-3.66;48.48;100090.56;4973806;28;20053;-81
2022/01/27 11:07:13;;;;;;;23.15;8.20;;;;;;;-3.76;48.82;100096.78;4957567;28;20054;-82
2022/01/27 11:09:43;;;;;;;19.98;8.55;;;;;;;-3.59;49.02;100093.97;4959204;28;20042;-83
2022/01/27 11:12:16;;;;;;;23.60;8.88;;;;;;;-3.58;48.38;100095.69;4943628;28;20133;-85
2022/01/27 11:14:42;;;;;;;23.35;8.35;;;;;;;-3.59;49.15;100087.88;4960038;28;20050;-83
2022/01/27 11:17:11;;;;;;;21.63;7.85;;;;;;;-3.78;48.68;100090.69;4974612;28;20046;-81
2022/01/27 11:22:42;;;;;;;24.95;7.90;;;;;;;-3.82;49.35;100089.00;4959635;28;20066;-79
2022/01/27 11:27:31;;;;;;;22.13;7.88;;;;;;;-3.76;49.51;100088.03;4973203;28;20039;-81
2022/01/27 11:30:26;;;;;;;26.05;8.35;;;;;;;-3.81;49.04;100098.53;4957323;28;20043;-84
2022/01/27 11:33:00;;;;;;;28.30;9.32;;;;;;;-3.78;49.22;100106.38;4961150;28;20078;-80
2022/01/27 11:35:27;;;;;;;24.88;8.95;;;;;;;-3.97;49.34;100089.13;4961020;28;20050;-81
2022/01/27 11:37:54;;;;;;;23.50;9.02;;;;;;;-3.94;49.70;100099.56;4978666;28;20039;-83
2022/01/27 11:40:23;;;;;;;21.40;9.27;;;;;;;-3.95;49.10;100103.03;4976857;28;20462;-81
2022/01/27 11:42:55;;;;;;;21.42;8.88;;;;;;;-4.27;49.55;100104.19;4960731;28;20113;-80
2022/01/27 11:45:21;;;;;;;26.58;8.13;;;;;;;-4.45;50.04;100106.91;4960856;28;20047;-81
2022/01/27 11:47:51;;;;;;;25.00;9.32;;;;;;;-4.68;50.34;100110.53;4960443;28;20383;-81
2022/01/27 11:50:37;;;;;;;24.02;9.20;;;;;;;-4.83;50.60;100102.81;4961635;28;20101;-84
2022/01/27 11:53:05;;;;;;;29.80;9.35;;;;;;;-5.24;50.87;100109.06;4968254;28;20137;-83
2022/01/27 11:55:34;;;;;;;22.75;8.40;;;;;;;-5.59;51.86;100110.94;4995795;28;20097;-84
2022/01/27 11:58:11;;;;;;;21.88;7.90;;;;;;;-5.78;52.23;100110.97;4995727;28;20059;-83
2022/01/27 12:00:39;;;;;;;30.17;8.20;;;;;;;-6.06;53.18;100110.16;4957880;28;20054;-82
2022/01/27 12:03:15;;;;;;;15.15;7.53;;;;;;;-6.32;53.87;100112.75;4979938;28;20046;-84
2022/01/27 12:05:45;;;;;;;23.48;8.80;;;;;;;-6.42;53.84;100126.63;4928944;28;20129;-82
2022/01/27 12:08:14;;;;;;;18.15;7.25;;;;;;;-6.66;54.39;100115.31;4972072;28;20495;-83
2022/01/27 12:10:47;;;;;;;22.75;8.70;;;;;;;-6.79;54.67;100115.28;4951233;28;20418;-82